Time;durP1;ratioP1;P1;durP2;ratioP2;P2;SDS_P1;SDS_P2;PMS_P1;PMS_P2;Temp;Humidity;BMP_temperature;BMP_pressure;BME280_temperature;BME280_humidity;BME280_pressure;Samples;Min_cycle;Max_cycle;Signal;HPM_P1;HPM_P2
2022/02/24 00:00:14;;;;;;;69.93;10.60;;;8.20;96.00;;;;;;4859174;29;20788;-88
2022/02/24 00:02:40;;;;;;;71.82;10.77;;;8.30;96.00;;;;;;4874620;29;20640;-88
2022/02/24 00:05:09;;;;;;;68.63;10.70;;;8.30;96.30;;;;;;4859315;29;20171;-88
2022/02/24 00:07:35;;;;;;;72.25;11.70;;;8.30;97.20;;;;;;4860620;29;20227;-88
2022/02/24 00:10:01;;;;;;;72.60;10.97;;;8.30;96.70;;;;;;4860717;29;20298;-88
2022/02/24 00:12:27;;;;;;;70.80;11.20;;;8.30;97.50;;;;;;4863944;29;20167;-88
2022/02/24 00:15:02;;;;;;;68.87;9.60;;;8.20;97.40;;;;;;4878095;29;20439;-87
2022/02/24 00:17:27;;;;;;;69.35;12.50;;;8.20;97.10;;;;;;4863951;29;20516;-88
2022/02/24 00:19:56;;;;;;;69.87;12.00;;;8.20;96.90;;;;;;4863447;29;20167;-88
2022/02/24 00:22:26;;;;;;;68.90;11.38;;;8.10;98.50;;;;;;4863715;29;20178;-88
2022/02/24 00:24:54;;;;;;;72.25;11.73;;;8.00;99.70;;;;;;4863397;29;20221;-88
2022/02/24 00:27:23;;;;;;;69.57;8.70;;;8.00;99.90;;;;;;4863842;29;20167;-88
2022/02/24 00:29:49;;;;;;;69.13;8.82;;;7.80;99.90;;;;;;4863901;29;20229;-87
2022/02/24 00:32:14;;;;;;;71.30;9.27;;;7.80;99.90;;;;;;4877617;29;20250;-87
2022/02/24 00:34:43;;;;;;;72.90;11.10;;;7.80;99.90;;;;;;4863333;29;20195;-87
2022/02/24 00:37:09;;;;;;;68.82;8.60;;;7.80;99.90;;;;;;4863082;29;20202;-88
2022/02/24 00:39:35;;;;;;;72.45;10.43;;;7.80;99.90;;;;;;4863171;29;20644;-88
2022/02/24 00:42:00;;;;;;;68.50;9.37;;;7.90;99.90;;;;;;4863061;29;20175;-88
2022/02/24 00:44:35;;;;;;;70.17;12.13;;;7.90;99.90;;;;;;4863092;29;20700;-88
2022/02/24 00:47:01;;;;;;;78.30;16.08;;;7.80;99.90;;;;;;4862432;29;20620;-88
2022/02/24 00:49:26;;;;;;;71.87;13.70;;;7.80;99.90;;;;;;4862904;29;20195;-88
2022/02/24 00:51:58;;;;;;;71.20;13.50;;;7.90;99.90;;;;;;4863462;29;20163;-88
2022/02/24 00:54:27;;;;;;;71.55;10.48;;;7.90;99.90;;;;;;4863196;29;20622;-88
2022/02/24 00:56:55;;;;;;;68.28;8.60;;;7.90;99.90;;;;;;4877422;29;20203;-88
2022/02/24 00:59:21;;;;;;;69.93;11.40;;;8.00;99.90;;;;;;4863078;29;20170;-88
2022/02/24 01:01:48;;;;;;;70.60;12.07;;;8.00;99.90;;;;;;4861491;29;20254;-88
2022/02/24 01:04:14;;;;;;;70.43;17.83;;;7.90;99.90;;;;;;4862766;29;20191;-88
2022/02/24 01:06:40;;;;;;;77.45;23.50;;;7.90;99.90;;;;;;4862908;29;20202;-88
2022/02/24 01:09:05;;;;;;;76.97;22.10;;;7.80;99.90;;;;;;4862655;29;20191;-88
2022/02/24 01:11:33;;;;;;;75.50;23.80;;;7.80;99.90;;;;;;4863060;29;20220;-88
2022/02/24 01:13:59;;;;;;;73.82;20.20;;;7.80;99.90;;;;;;4862489;29;20171;-88
2022/02/24 01:16:28;;;;;;;71.87;15.17;;;7.90;99.90;;;;;;4862579;29;20191;-88
2022/02/24 01:18:53;;;;;;;72.40;17.88;;;7.90;99.90;;;;;;4862474;29;20540;-88
2022/02/24 01:21:19;;;;;;;75.30;23.53;;;7.90;99.90;;;;;;4862263;29;20263;-88
2022/02/24 01:23:47;;;;;;;74.10;22.83;;;7.80;99.90;;;;;;4862358;29;20640;-88
2022/02/24 01:26:15;;;;;;;73.05;20.05;;;7.80;99.90;;;;;;4862316;29;20278;-88
2022/02/24 01:28:41;;;;;;;72.95;18.98;;;7.80;99.90;;;;;;4862201;29;20274;-88
2022/02/24 01:31:07;;;;;;;73.20;13.37;;;7.80;99.90;;;;;;4861327;29;20266;-88
2022/02/24 01:33:32;;;;;;;70.77;14.10;;;7.70;99.90;;;;;;4862288;29;20221;-88
2022/02/24 01:36:01;;;;;;;70.30;12.30;;;7.70;99.90;;;;;;4862071;29;20190;-88
2022/02/24 01:38:29;;;;;;;73.68;13.48;;;7.70;99.90;;;;;;4860858;29;20182;-88
2022/02/24 01:40:55;;;;;;;69.07;12.23;;;7.70;99.90;;;;;;4862056;29;20175;-88
2022/02/24 01:43:21;;;;;;;73.90;14.00;;;7.70;99.90;;;;;;4862163;29;20184;-88
2022/02/24 01:45:46;;;;;;;70.37;12.00;;;7.70;99.90;;;;;;4862208;29;20236;-88
2022/02/24 01:48:12;;;;;;;69.97;12.30;;;7.70;99.90;;;;;;4861853;29;20190;-88
2022/02/24 01:50:39;;;;;;;75.33;13.23;;;7.80;99.90;;;;;;4862166;29;20171;-88
2022/02/24 01:53:05;;;;;;;71.22;12.23;;;7.80;99.90;;;;;;4861962;29;20220;-88
2022/02/24 01:55:31;;;;;;;71.63;12.32;;;7.80;99.90;;;;;;4860748;29;20663;-88
2022/02/24 01:57:56;;;;;;;72.10;14.60;;;7.80;99.90;;;;;;4861868;29;20164;-88
2022/02/24 02:00:24;;;;;;;72.33;12.43;;;7.80;99.90;;;;;;4861987;29;20257;-88
2022/02/24 02:02:50;;;;;;;88.85;11.70;;;7.80;99.90;;;;;;4861712;29;20251;-88
2022/02/24 02:05:16;;;;;;;72.97;16.63;;;7.80;99.90;;;;;;4861981;29;20286;-88
2022/02/24 02:07:41;;;;;;;73.50;13.37;;;7.80;99.90;;;;;;4860424;29;20270;-88
2022/02/24 02:10:08;;;;;;;78.33;28.57;;;7.90;99.90;;;;;;4875764;29;20448;-88
2022/02/24 02:12:48;;;;;;;77.47;30.48;;;7.80;99.90;;;;;;4861815;29;20186;-88
2022/02/24 02:15:14;;;;;;;74.35;21.90;;;7.80;99.90;;;;;;4861523;29;20250;-88
2022/02/24 02:17:40;;;;;;;81.30;33.47;;;7.80;99.90;;;;;;4862033;29;20199;-88
2022/02/24 02:20:09;;;;;;;75.57;25.00;;;7.80;99.90;;;;;;4861453;29;20171;-88
2022/02/24 02:22:34;;;;;;;78.85;22.95;;;7.80;99.90;;;;;;4860918;29;20266;-88
2022/02/24 02:25:03;;;;;;;87.53;43.93;;;7.80;99.90;;;;;;4861406;29;20637;-88
2022/02/24 02:27:32;;;;;;;80.55;37.78;;;7.70;99.90;;;;;;4875571;29;20213;-88
2022/02/24 02:29:57;;;;;;;76.68;21.23;;;7.70;99.90;;;;;;4861580;29;20187;-88
2022/02/24 02:32:24;;;;;;;76.60;21.67;;;7.80;99.90;;;;;;4860874;29;20167;-88
2022/02/24 02:34:50;;;;;;;73.50;21.95;;;7.80;99.90;;;;;;4861422;29;20195;-88
2022/02/24 02:37:15;;;;;;;72.53;17.07;;;7.80;99.90;;;;;;4861146;29;20294;-88
2022/02/24 02:39:41;;;;;;;72.10;15.60;;;7.80;99.90;;;;;;4861499;29;20651;-88
2022/02/24 02:42:07;;;;;;;75.23;24.03;;;7.80;99.90;;;;;;4861416;29;20175;-88
2022/02/24 02:44:36;;;;;;;74.80;19.67;;;7.70;99.90;;;;;;4861346;29;20674;-88
2022/02/24 02:47:01;;;;;;;77.65;28.65;;;7.70;99.90;;;;;;4861031;29;20290;-88
2022/02/24 02:49:29;;;;;;;75.07;19.37;;;7.70;99.90;;;;;;4861079;29;20244;-88
2022/02/24 02:51:58;;;;;;;77.50;17.60;;;7.70;99.90;;;;;;4860716;29;20175;-88
2022/02/24 02:54:24;;;;;;;72.97;15.02;;;7.80;99.90;;;;;;4861750;29;20175;-88
2022/02/24 02:56:49;;;;;;;71.00;12.20;;;7.80;99.90;;;;;;4875164;29;20612;-88
2022/02/24 02:59:19;;;;;;;70.27;11.80;;;7.90;99.90;;;;;;4861097;29;20785;-88
2022/02/24 03:01:54;;;;;;;68.18;9.25;;;7.80;99.90;;;;;;4861192;29;20167;-87
2022/02/24 03:04:40;;;;;;;72.45;12.23;;;7.90;99.90;;;;;;4861502;29;20181;-87
2022/02/24 03:07:06;;;;;;;74.22;11.25;;;7.80;99.90;;;;;;4860604;29;20557;-87
2022/02/24 03:09:31;;;;;;;69.47;11.80;;;7.90;99.90;;;;;;4861366;29;20201;-87
2022/02/24 03:11:57;;;;;;;73.13;10.30;;;7.80;99.90;;;;;;4860792;29;20202;-88
2022/02/24 03:14:26;;;;;;;70.13;10.17;;;7.90;99.90;;;;;;4859589;29;20423;-87
2022/02/24 03:16:51;;;;;;;68.65;10.60;;;7.90;99.90;;;;;;4860702;29;20195;-88
2022/02/24 03:19:17;;;;;;;69.90;11.60;;;7.90;99.90;;;;;;4861007;29;20179;-88
2022/02/24 03:21:43;;;;;;;70.40;10.50;;;7.90;99.90;;;;;;4860996;29;20495;-88
2022/02/24 03:24:09;;;;;;;70.80;12.67;;;7.90;99.90;;;;;;4860968;29;20176;-88
2022/02/24 03:26:34;;;;;;;71.77;13.47;;;7.80;99.90;;;;;;4860865;29;20191;-87
2022/02/24 03:29:00;;;;;;;73.03;16.77;;;7.80;99.90;;;;;;4860794;29;20452;-87
2022/02/24 03:31:25;;;;;;;72.90;14.03;;;7.80;99.90;;;;;;4861170;29;20211;-88
2022/02/24 03:33:51;;;;;;;75.70;13.87;;;7.80;99.90;;;;;;4875020;29;20164;-88
2022/02/24 03:36:17;;;;;;;72.23;11.70;;;7.80;99.90;;;;;;4860611;29;20198;-88
2022/02/24 03:38:42;;;;;;;72.77;11.97;;;7.90;99.90;;;;;;4860684;29;20171;-88
2022/02/24 03:41:08;;;;;;;76.10;15.20;;;7.80;99.90;;;;;;4860880;29;20412;-88
2022/02/24 03:43:34;;;;;;;74.77;12.10;;;7.80;99.90;;;;;;4860657;29;20195;-88
2022/02/24 03:45:59;;;;;;;70.50;13.33;;;7.80;99.90;;;;;;4863517;29;20615;-88
2022/02/24 03:48:25;;;;;;;74.00;13.00;;;7.80;99.90;;;;;;4863974;29;20191;-88
2022/02/24 03:50:51;;;;;;;74.73;16.43;;;7.80;99.90;;;;;;4864336;29;20171;-88
2022/02/24 03:53:19;;;;;;;72.00;15.90;;;7.80;99.90;;;;;;4864270;29;20183;-88
2022/02/24 03:55:45;;;;;;;72.78;14.65;;;7.80;99.90;;;;;;4863844;29;20672;-88
2022/02/24 03:58:10;;;;;;;73.70;16.50;;;7.80;99.90;;;;;;4864178;29;20232;-88
2022/02/24 04:00:36;;;;;;;70.97;15.63;;;7.80;99.90;;;;;;4863873;29;20172;-87
2022/02/24 04:03:02;;;;;;;73.57;19.30;;;7.80;99.90;;;;;;4864093;29;20540;-87
2022/02/24 04:05:30;;;;;;;75.70;15.13;;;7.80;99.90;;;;;;4863719;29;20682;-88
2022/02/24 04:07:56;;;;;;;73.93;23.92;;;7.80;99.90;;;;;;4863686;29;20258;-88
2022/02/24 04:10:22;;;;;;;71.43;16.23;;;7.70;99.90;;;;;;4862671;29;20285;-88
2022/02/24 04:12:47;;;;;;;74.90;16.10;;;7.80;99.90;;;;;;4863690;29;20307;-88
2022/02/24 04:15:13;;;;;;;71.07;11.53;;;7.80;99.90;;;;;;4863557;29;20167;-88
2022/02/24 04:17:39;;;;;;;74.67;13.93;;;7.80;99.90;;;;;;4863617;29;20253;-87
2022/02/24 04:20:05;;;;;;;72.57;14.20;;;7.80;99.90;;;;;;4863505;29;20175;-87
2022/02/24 04:22:31;;;;;;;71.80;13.52;;;7.80;99.90;;;;;;4863795;29;20262;-87
2022/02/24 04:24:58;;;;;;;72.97;11.53;;;7.80;99.90;;;;;;4862197;29;20203;-88
2022/02/24 04:27:26;;;;;;;73.65;12.77;;;7.90;99.90;;;;;;4863444;29;20163;-88
2022/02/24 04:29:52;;;;;;;70.47;13.77;;;7.90;99.90;;;;;;4863327;29;20199;-88
2022/02/24 04:32:18;;;;;;;77.50;21.03;;;7.90;99.90;;;;;;4863965;29;20643;-88
2022/02/24 04:34:49;;;;;;;77.90;15.13;;;7.80;99.90;;;;;;4863293;29;20513;-88
2022/02/24 04:37:15;;;;;;;68.95;11.13;;;7.80;99.90;;;;;;4863114;29;20198;-88
2022/02/24 04:39:40;;;;;;;70.73;13.33;;;7.90;99.90;;;;;;4863408;29;20258;-88
2022/02/24 04:42:09;;;;;;;75.47;10.33;;;7.80;99.90;;;;;;4863171;29;20646;-88
2022/02/24 04:44:35;;;;;;;72.30;12.15;;;7.90;99.90;;;;;;4863648;29;20527;-88
2022/02/24 04:47:00;;;;;;;73.47;13.70;;;7.90;99.90;;;;;;4862969;29;20213;-88
2022/02/24 04:49:26;;;;;;;72.97;19.40;;;7.80;99.90;;;;;;4863266;29;20243;-88
2022/02/24 04:51:52;;;;;;;75.57;15.27;;;7.80;99.90;;;;;;4863002;29;20163;-88
2022/02/24 04:54:17;;;;;;;80.93;11.90;;;7.80;99.90;;;;;;4863245;29;20176;-88
2022/02/24 04:56:43;;;;;;;68.87;10.17;;;7.90;99.90;;;;;;4862464;29;20215;-88
2022/02/24 04:59:09;;;;;;;69.63;9.90;;;7.90;99.90;;;;;;4862897;29;20171;-88
2022/02/24 05:01:35;;;;;;;74.47;12.50;;;8.00;99.90;;;;;;4940603;23;20241;-88
2022/02/24 05:04:01;;;;;;;70.30;10.32;;;8.00;99.90;;;;;;4882829;29;20177;-88
2022/02/24 05:06:27;;;;;;;75.77;15.40;;;8.00;99.90;;;;;;4882151;29;20194;-88
2022/02/24 05:08:53;;;;;;;73.37;18.50;;;8.00;99.90;;;;;;4882866;29;20194;-88
2022/02/24 05:11:18;;;;;;;71.10;15.27;;;8.10;99.90;;;;;;4882186;29;20608;-88
2022/02/24 05:13:44;;;;;;;70.00;14.10;;;8.10;99.90;;;;;;4882604;29;20171;-88
2022/02/24 05:16:10;;;;;;;70.60;12.13;;;8.20;99.90;;;;;;4883769;29;20612;-88
2022/02/24 05:18:35;;;;;;;78.33;11.27;;;8.20;99.90;;;;;;4884173;29;20174;-88
2022/02/24 05:21:01;;;;;;;70.97;11.67;;;8.20;99.90;;;;;;4884133;29;20170;-88
2022/02/24 05:23:29;;;;;;;69.00;9.13;;;8.30;99.90;;;;;;4883754;29;20177;-88
2022/02/24 05:25:55;;;;;;;70.80;10.65;;;8.30;99.90;;;;;;4882329;29;20225;-88
2022/02/24 05:28:21;;;;;;;70.40;10.90;;;8.30;99.90;;;;;;4881715;29;20171;-88
2022/02/24 05:30:46;;;;;;;71.20;10.30;;;8.40;99.90;;;;;;4881827;29;20426;-88
2022/02/24 05:33:15;;;;;;;77.63;9.77;;;8.40;99.90;;;;;;4882163;29;20170;-88
2022/02/24 05:35:40;;;;;;;73.75;12.35;;;8.40;99.90;;;;;;4882439;29;20201;-88
2022/02/24 05:38:06;;;;;;;71.77;9.87;;;8.50;99.90;;;;;;4883576;29;20218;-88
2022/02/24 05:40:32;;;;;;;76.23;12.43;;;8.40;99.90;;;;;;4883607;29;20508;-88
2022/02/24 05:43:01;;;;;;;71.80;12.43;;;8.50;99.90;;;;;;4882503;29;20258;-88
2022/02/24 05:45:26;;;;;;;68.57;12.27;;;8.40;99.90;;;;;;4882576;29;20750;-88
2022/02/24 05:47:52;;;;;;;74.43;12.20;;;8.40;99.90;;;;;;4883347;29;20175;-88
2022/02/24 05:50:18;;;;;;;70.47;11.30;;;8.30;99.90;;;;;;4882388;29;20190;-88
2022/02/24 05:52:46;;;;;;;73.33;10.43;;;8.30;99.90;;;;;;4884167;29;20443;-88
2022/02/24 05:55:15;;;;;;;75.70;11.48;;;8.20;99.90;;;;;;4882140;29;20175;-88
2022/02/24 05:57:42;;;;;;;76.13;11.00;;;8.10;99.90;;;;;;4882100;29;20223;-88
2022/02/24 06:00:09;;;;;;;72.28;11.63;;;8.10;99.90;;;;;;4884111;29;20651;-88
2022/02/24 06:02:35;;;;;;;71.18;11.10;;;8.10;99.90;;;;;;4883889;29;20690;-88
2022/02/24 06:05:00;;;;;;;71.67;11.03;;;8.10;99.90;;;;;;4882589;29;20179;-88
2022/02/24 06:07:26;;;;;;;71.60;13.37;;;8.10;99.90;;;;;;4881872;29;20181;-88
2022/02/24 06:09:52;;;;;;;71.90;13.90;;;8.00;99.90;;;;;;4883592;29;20447;-88
2022/02/24 06:12:18;;;;;;;69.03;11.60;;;8.00;99.90;;;;;;4882663;29;20586;-88
2022/02/24 06:14:43;;;;;;;72.97;12.73;;;8.00;99.90;;;;;;4882331;29;20201;-88
2022/02/24 06:17:09;;;;;;;70.87;13.27;;;8.00;99.90;;;;;;4883494;29;20187;-88
2022/02/24 06:19:35;;;;;;;70.97;11.97;;;8.00;99.90;;;;;;4883569;29;20191;-88
2022/02/24 06:22:01;;;;;;;80.83;19.87;;;8.00;99.90;;;;;;4887280;29;20246;-87
2022/02/24 06:24:26;;;;;;;70.47;10.30;;;7.90;99.90;;;;;;4892278;29;20425;-87
2022/02/24 06:26:52;;;;;;;75.20;18.43;;;8.00;99.90;;;;;;4893042;29;20431;-87
2022/02/24 06:29:18;;;;;;;72.17;14.70;;;7.90;99.90;;;;;;4893209;29;20208;-87
2022/02/24 06:31:43;;;;;;;73.47;22.10;;;7.90;99.90;;;;;;4893713;29;20187;-87
2022/02/24 06:34:09;;;;;;;77.43;26.50;;;7.90;99.90;;;;;;4892299;29;20184;-87
2022/02/24 06:36:35;;;;;;;73.57;18.37;;;7.90;99.90;;;;;;4892390;29;20187;-87
2022/02/24 06:39:01;;;;;;;73.47;22.70;;;7.90;99.90;;;;;;4893080;29;20170;-87
2022/02/24 06:41:27;;;;;;;76.57;25.35;;;7.90;99.90;;;;;;4892910;29;20414;-87
2022/02/24 06:43:53;;;;;;;74.60;19.67;;;7.80;99.90;;;;;;4892384;29;20185;-87
2022/02/24 06:46:19;;;;;;;78.78;22.55;;;7.90;99.90;;;;;;4890670;29;20190;-87
2022/02/24 06:48:46;;;;;;;74.43;26.17;;;7.90;99.90;;;;;;4890713;29;20198;-87
2022/02/24 06:51:12;;;;;;;72.57;17.70;;;7.90;99.90;;;;;;4892834;29;20470;-87
2022/02/24 06:53:38;;;;;;;75.97;18.83;;;7.90;99.90;;;;;;4891634;29;20233;-87
2022/02/24 06:56:04;;;;;;;76.37;24.90;;;7.90;99.90;;;;;;4890872;29;20526;-87
2022/02/24 06:58:32;;;;;;;78.40;30.17;;;7.90;99.90;;;;;;4890214;29;20600;-86
2022/02/24 07:00:58;;;;;;;80.43;33.15;;;7.90;99.90;;;;;;4889764;29;20608;-86
2022/02/24 07:03:25;;;;;;;78.25;23.85;;;8.00;99.90;;;;;;4888361;29;20179;-87
2022/02/24 07:05:50;;;;;;;77.57;32.33;;;8.00;99.90;;;;;;4892746;29;20187;-86
2022/02/24 07:08:16;;;;;;;80.60;35.80;;;8.00;99.90;;;;;;4893609;29;20167;-86
2022/02/24 07:10:42;;;;;;;81.43;38.23;;;8.00;99.90;;;;;;4894340;29;20198;-87
2022/02/24 07:13:07;;;;;;;84.73;43.60;;;8.00;99.90;;;;;;4894658;29;20167;-86
2022/02/24 07:15:33;;;;;;;78.87;35.97;;;8.00;99.90;;;;;;4895524;29;20194;-87
2022/02/24 07:17:59;;;;;;;80.63;32.53;;;8.00;99.90;;;;;;4900137;29;20219;-87
2022/02/24 07:20:24;;;;;;;83.27;38.80;;;8.10;99.90;;;;;;4903006;29;20186;-88
2022/02/24 07:22:50;;;;;;;82.00;40.07;;;8.10;99.90;;;;;;4903331;29;20198;-87
2022/02/24 07:25:16;;;;;;;83.03;40.93;;;8.10;99.90;;;;;;4902733;29;20202;-87
2022/02/24 07:27:42;;;;;;;86.83;42.27;;;8.10;99.90;;;;;;4903277;29;20177;-87
2022/02/24 07:30:09;;;;;;;83.50;40.92;;;8.10;99.90;;;;;;4902565;29;20439;-87
2022/02/24 07:32:35;;;;;;;82.10;38.42;;;8.10;99.90;;;;;;4903034;29;20174;-87
2022/02/24 07:37:36;;;;;;;84.45;42.33;;;8.30;99.90;;;;;;4971830;23;20286;-87
2022/02/24 07:40:04;;;;;;;85.05;40.58;;;8.30;99.90;;;;;;4902486;29;20248;-87
2022/02/24 07:42:31;;;;;;;84.80;38.55;;;8.30;99.90;;;;;;4902461;29;20178;-88
2022/02/24 07:44:56;;;;;;;87.65;44.80;;;8.40;99.90;;;;;;4902028;29;20198;-87
2022/02/24 07:47:22;;;;;;;78.00;30.90;;;8.40;99.90;;;;;;4902305;29;20179;-86
2022/02/24 07:49:48;;;;;;;73.43;19.43;;;8.50;99.90;;;;;;4900959;29;20250;-87
2022/02/24 07:52:14;;;;;;;80.43;28.50;;;8.60;99.90;;;;;;4899092;29;20238;-87
2022/02/24 07:54:39;;;;;;;76.57;24.00;;;8.60;99.90;;;;;;4899184;29;20177;-87
2022/02/24 07:57:05;;;;;;;74.27;16.27;;;8.70;99.90;;;;;;4897872;29;20434;-86
2022/02/24 07:59:31;;;;;;;72.07;11.50;;;8.80;99.90;;;;;;4898000;29;20194;-86
2022/02/24 08:01:57;;;;;;;72.37;11.80;;;8.90;99.90;;;;;;4898631;29;20171;-87
2022/02/24 08:04:25;;;;;;;70.30;9.47;;;8.90;99.90;;;;;;4899487;29;20418;-87
2022/02/24 08:06:51;;;;;;;67.80;9.57;;;9.00;99.90;;;;;;4899175;29;20193;-87
2022/02/24 08:09:17;;;;;;;75.40;10.20;;;9.10;99.90;;;;;;4898494;29;20222;-87
2022/02/24 08:12:38;;;;;;;71.70;13.07;;;9.10;99.90;;;;;;4898460;29;20388;-87
2022/02/24 08:14:28;;;;;;;69.65;11.98;;;9.20;99.90;;;;;;4897704;29;20407;-87
2022/02/24 08:16:54;;;;;;;71.37;14.10;;;9.10;99.90;;;;;;4896360;29;20200;-86
2022/02/24 08:19:19;;;;;;;69.90;13.10;;;9.10;99.90;;;;;;4898923;29;20181;-86
2022/02/24 08:21:45;;;;;;;71.03;16.60;;;9.10;99.90;;;;;;4899123;29;20181;-87
2022/02/24 08:24:11;;;;;;;70.60;18.30;;;9.10;99.90;;;;;;4899129;29;20178;-87
2022/02/24 08:26:37;;;;;;;77.63;18.80;;;9.10;99.90;;;;;;4898311;29;20468;-87
2022/02/24 08:29:05;;;;;;;72.73;15.70;;;9.10;99.90;;;;;;4898940;29;20222;-87
2022/02/24 08:31:31;;;;;;;73.30;15.27;;;9.10;99.90;;;;;;4896390;29;20183;-87
2022/02/24 08:33:57;;;;;;;76.13;14.70;;;9.00;99.90;;;;;;4898174;29;20199;-87
2022/02/24 08:36:23;;;;;;;74.00;12.23;;;9.10;99.90;;;;;;4897770;29;20423;-87
2022/02/24 08:38:48;;;;;;;74.67;11.90;;;9.00;99.90;;;;;;4898434;29;20202;-86
2022/02/24 08:41:14;;;;;;;68.90;9.70;;;8.90;99.90;;;;;;4897290;29;20419;-87
2022/02/24 08:43:39;;;;;;;71.50;12.07;;;8.90;99.90;;;;;;4896533;29;20179;-87
2022/02/24 08:46:05;;;;;;;74.67;11.60;;;8.90;99.90;;;;;;4898175;29;20205;-87
2022/02/24 08:48:31;;;;;;;74.53;10.97;;;8.90;99.90;;;;;;4898415;29;20178;-86
2022/02/24 08:50:56;;;;;;;72.90;13.00;;;8.90;99.90;;;;;;4898788;29;20171;-86
2022/02/24 08:53:22;;;;;;;79.03;14.27;;;8.80;99.90;;;;;;4896301;29;20235;-86
2022/02/24 08:55:48;;;;;;;74.20;15.33;;;8.80;99.90;;;;;;4897589;29;20187;-87
2022/02/24 08:58:16;;;;;;;76.67;26.43;;;8.80;99.90;;;;;;4897398;29;20451;-87
2022/02/24 09:00:47;;;;;;;74.13;20.52;;;8.80;99.90;;;;;;4898276;29;20174;-87
2022/02/24 09:03:14;;;;;;;73.10;18.85;;;8.80;99.90;;;;;;4896877;29;20159;-87
2022/02/24 09:05:40;;;;;;;74.32;18.48;;;8.80;99.90;;;;;;4897210;29;20273;-87
2022/02/24 09:08:06;;;;;;;78.57;24.45;;;8.80;99.90;;;;;;4896261;29;20170;-87
2022/02/24 09:10:32;;;;;;;72.97;14.00;;;8.80;99.90;;;;;;4895634;29;20194;-87
2022/02/24 09:12:58;;;;;;;71.57;13.80;;;8.90;99.90;;;;;;4895727;29;20527;-87
2022/02/24 09:15:24;;;;;;;77.35;24.25;;;8.90;99.90;;;;;;4893746;29;20686;-88
2022/02/24 09:17:50;;;;;;;79.57;20.27;;;8.90;99.90;;;;;;4896413;29;20215;-87
2022/02/24 09:20:16;;;;;;;77.47;25.00;;;9.00;99.90;;;;;;4897901;29;20447;-87
2022/02/24 09:22:42;;;;;;;73.80;19.70;;;9.00;99.90;;;;;;4897712;29;20522;-87
2022/02/24 09:25:09;;;;;;;85.63;30.20;;;9.10;99.90;;;;;;4897780;29;20223;-87
2022/02/24 09:27:36;;;;;;;75.93;23.30;;;9.10;99.90;;;;;;4899446;29;20166;-87
2022/02/24 09:30:03;;;;;;;77.55;31.02;;;9.20;99.90;;;;;;4898681;29;20219;-87
2022/02/24 09:32:29;;;;;;;80.60;35.80;;;9.20;99.90;;;;;;4897798;29;20173;-87
2022/02/24 09:34:57;;;;;;;78.23;30.67;;;9.30;99.90;;;;;;4897090;29;20198;-86
2022/02/24 09:37:23;;;;;;;80.15;32.75;;;9.40;99.90;;;;;;4897489;29;20242;-87
2022/02/24 09:39:49;;;;;;;74.40;14.10;;;9.40;99.90;;;;;;4898107;29;20185;-86
2022/02/24 09:42:15;;;;;;;70.80;9.90;;;9.50;99.90;;;;;;4897589;29;20185;-87
2022/02/24 09:44:41;;;;;;;77.50;10.37;;;9.60;99.90;;;;;;4898303;29;20186;-86
2022/02/24 09:47:09;;;;;;;75.57;10.38;;;9.70;99.90;;;;;;4897973;29;20195;-87
2022/02/24 09:49:36;;;;;;;74.72;19.13;;;9.60;99.90;;;;;;4899198;29;20196;-87
2022/02/24 09:52:03;;;;;;;82.82;36.58;;;9.60;99.90;;;;;;4897866;29;20171;-86
2022/02/24 09:54:29;;;;;;;79.88;40.40;;;9.60;99.90;;;;;;4895330;29;20171;-87
2022/02/24 09:56:55;;;;;;;78.90;31.80;;;9.50;99.90;;;;;;4896715;29;20246;-87
2022/02/24 09:59:22;;;;;;;79.70;32.00;;;9.50;99.90;;;;;;4895594;29;20189;-87
2022/02/24 10:01:50;;;;;;;78.85;25.75;;;9.60;99.90;;;;;;4895126;29;20174;-87
2022/02/24 10:04:15;;;;;;;77.25;27.15;;;9.60;99.90;;;;;;4895533;29;20190;-87
2022/02/24 10:06:43;;;;;;;78.70;28.53;;;9.70;99.90;;;;;;4896676;29;20174;-87
2022/02/24 10:09:11;;;;;;;77.57;26.70;;;9.80;99.90;;;;;;4897400;29;20190;-87
2022/02/24 10:11:41;;;;;;;82.57;33.42;;;9.80;99.90;;;;;;4896600;29;20658;-87
2022/02/24 10:14:09;;;;;;;77.05;30.27;;;9.70;99.90;;;;;;4893497;29;20171;-87
2022/02/24 10:16:51;;;;;;;82.35;37.58;;;9.80;99.90;;;;;;4893524;29;20194;-87
2022/02/24 10:19:27;;;;;;;82.53;47.70;;;9.80;99.90;;;;;;4895455;29;20230;-86
2022/02/24 10:22:11;;;;;;;74.95;21.10;;;9.90;99.90;;;;;;4893353;29;20567;-88
2022/02/24 10:24:39;;;;;;;77.80;28.98;;;10.00;99.90;;;;;;4895012;29;20247;-86
2022/02/24 10:27:26;;;;;;;75.55;25.20;;;10.10;99.90;;;;;;4897812;29;20746;-87
2022/02/24 10:30:16;;;;;;;77.68;27.20;;;10.00;99.90;;;;;;4896899;29;20197;-87
2022/02/24 10:32:48;;;;;;;77.45;31.90;;;10.00;99.90;;;;;;4898883;29;20154;-86
2022/02/24 10:35:39;;;;;;;79.65;36.00;;;10.00;99.90;;;;;;4900141;29;20166;-86
2022/02/24 10:38:08;;;;;;;79.35;38.33;;;10.00;99.90;;;;;;4896748;29;20182;-87
2022/02/24 10:40:43;;;;;;;77.47;34.45;;;10.10;99.90;;;;;;4895294;29;20195;-87
2022/02/24 10:43:11;;;;;;;84.95;32.60;;;10.10;99.90;;;;;;4893230;29;20166;-87
2022/02/24 10:45:57;;;;;;;78.47;36.40;;;10.00;99.90;;;;;;4895444;29;20190;-87
2022/02/24 10:48:24;;;;;;;75.35;26.05;;;9.90;99.90;;;;;;4893468;29;20161;-88
2022/02/24 10:51:05;;;;;;;75.18;23.05;;;9.80;99.90;;;;;;4890971;29;20604;-87
2022/02/24 10:53:33;;;;;;;76.75;26.40;;;9.80;99.90;;;;;;4898565;29;20146;-87
2022/02/24 10:56:15;;;;;;;79.53;32.83;;;9.90;99.90;;;;;;4895606;29;20193;-86
2022/02/24 10:58:43;;;;;;;77.18;31.73;;;10.00;99.90;;;;;;4893040;29;20268;-87
2022/02/24 11:01:22;;;;;;;79.63;33.65;;;10.00;99.90;;;;;;4951625;23;20237;-88
2022/02/24 11:03:49;;;;;;;79.55;36.67;;;10.00;99.90;;;;;;4878400;29;20172;-88
2022/02/24 11:06:15;;;;;;;77.10;29.48;;;10.10;99.90;;;;;;4935865;23;20624;-88
2022/02/24 11:08:43;;;;;;;75.32;28.98;;;10.00;99.90;;;;;;4879179;29;20531;-88
2022/02/24 11:11:11;;;;;;;73.85;26.40;;;10.00;99.90;;;;;;4879924;29;20170;-88
2022/02/24 11:13:37;;;;;;;75.05;27.77;;;9.90;99.90;;;;;;4879803;29;20170;-87
2022/02/24 11:16:03;;;;;;;81.63;32.00;;;10.00;99.90;;;;;;4880215;29;20193;-87
2022/02/24 11:18:29;;;;;;;84.22;50.00;;;9.90;99.90;;;;;;4878899;29;20174;-88
2022/02/24 11:20:56;;;;;;;135.10;122.50;;;9.70;99.90;;;;;;4879158;29;20178;-88
2022/02/24 11:23:23;;;;;;;158.23;144.63;;;9.60;99.90;;;;;;4879781;29;20174;-88
2022/02/24 11:25:58;;;;;;;169.18;155.57;;;9.50;99.90;;;;;;4879225;29;20187;-88
2022/02/24 11:28:33;;;;;;;167.52;154.10;;;9.50;99.90;;;;;;4879876;29;20270;-88
2022/02/24 11:31:09;;;;;;;105.20;94.03;;;9.70;99.90;;;;;;4863513;29;20170;-88
2022/02/24 11:33:35;;;;;;;182.75;168.82;;;9.90;99.90;;;;;;4879288;29;20672;-87
2022/02/24 11:36:16;;;;;;;144.43;131.27;;;9.90;99.90;;;;;;4879461;29;20186;-88
2022/02/24 11:39:02;;;;;;;94.53;72.18;;;10.00;99.90;;;;;;4879243;29;20155;-88
2022/02/24 11:41:27;;;;;;;90.38;70.35;;;10.20;99.90;;;;;;4879073;29;20174;-88
2022/02/24 11:43:56;;;;;;;78.57;30.13;;;10.20;99.90;;;;;;4879065;29;20531;-88
2022/02/24 11:46:22;;;;;;;77.07;19.83;;;10.30;99.90;;;;;;4879346;29;20179;-89
2022/02/24 11:48:51;;;;;;;72.03;20.00;;;10.40;99.90;;;;;;4879053;29;20197;-88
2022/02/24 11:51:20;;;;;;;74.68;25.45;;;10.30;99.90;;;;;;4879138;29;20160;-88
2022/02/24 11:53:53;;;;;;;73.18;23.27;;;10.30;99.90;;;;;;4877937;29;20205;-89
2022/02/24 11:56:26;;;;;;;79.32;35.70;;;10.30;99.90;;;;;;4877738;29;20190;-88
2022/02/24 11:58:54;;;;;;;77.50;32.83;;;10.30;99.90;;;;;;4879707;29;20155;-89
2022/02/24 12:01:29;;;;;;;75.28;28.02;;;10.30;99.90;;;;;;4879037;29;20242;-88
2022/02/24 12:04:01;;;;;;;78.63;36.55;;;10.40;99.90;;;;;;4879053;29;20244;-89
2022/02/24 12:06:38;;;;;;;72.78;20.13;;;10.30;99.90;;;;;;4879748;29;20226;-89
2022/02/24 12:09:07;;;;;;;67.57;9.27;;;10.40;99.90;;;;;;4882871;29;20667;-89
2022/02/24 12:12:10;;;;;;;72.72;8.60;;;10.50;99.90;;;;;;4882424;29;20246;-89
2022/02/24 12:14:36;;;;;;;70.90;10.63;;;10.60;99.90;;;;;;4882559;29;20646;-89
2022/02/24 12:17:05;;;;;;;70.45;11.85;;;10.70;99.90;;;;;;4880885;29;20286;-89
2022/02/24 12:19:41;;;;;;;68.97;8.90;;;10.90;99.90;;;;;;4882230;29;20151;-89
2022/02/24 12:22:33;;;;;;;68.57;8.55;;;11.10;99.90;;;;;;4882652;29;20219;-89
2022/02/24 12:25:14;;;;;;;67.38;8.80;;;11.40;99.90;;;;;;4880756;29;20550;-89
2022/02/24 12:27:47;;;;;;;69.85;15.02;;;11.60;99.90;;;;;;4882351;29;20242;-89
2022/02/24 12:30:29;;;;;;;71.68;12.88;;;11.80;99.90;;;;;;4882043;29;20191;-89
2022/02/24 12:33:04;;;;;;;66.95;5.57;;;11.90;99.90;;;;;;4881171;29;20215;-89
2022/02/24 12:35:39;;;;;;;68.45;8.20;;;11.90;99.90;;;;;;4881979;29;20196;-89
2022/02/24 12:38:12;;;;;;;70.20;12.27;;;11.90;99.10;;;;;;4882174;29;20507;-89
2022/02/24 12:40:41;;;;;;;71.05;14.05;;;12.00;98.30;;;;;;4882123;29;20162;-88